createdAt,value
2023-03-30T17:19:43.120Z,99043.84
2023-03-30T17:22:10.844Z,99040.94
2023-03-30T17:24:38.595Z,99038.94
2023-03-30T17:27:06.887Z,99046.63
2023-03-30T17:29:34.801Z,99051.22
2023-03-30T17:32:02.658Z,99059.97
2023-03-30T17:34:30.310Z,99050.16
2023-03-30T17:36:59.261Z,99060.06
2023-03-30T17:39:27.080Z,99052.44
2023-03-30T17:41:54.884Z,99049.38
2023-03-30T17:44:22.515Z,99049.97
2023-03-30T17:46:50.241Z,99054.28
2023-03-30T17:49:18.144Z,99050.84
2023-03-30T17:51:45.922Z,99059.41
2023-03-30T17:54:15.548Z,99065.63
2023-03-30T17:56:43.289Z,99061.28
2023-03-30T17:59:11.302Z,99067.59
2023-03-30T18:01:39.069Z,99058.03
2023-03-30T18:04:07.586Z,99058.88
2023-03-30T18:06:35.359Z,99072.94
2023-03-30T18:09:03.032Z,99068.66
2023-03-30T18:11:32.158Z,99071.47
2023-03-30T18:13:59.914Z,99072.25
2023-03-30T18:16:27.902Z,99075.88
2023-03-30T18:18:57.836Z,99074.16
2023-03-30T18:21:26.526Z,99074.44
2023-03-30T18:23:54.187Z,99080.44
2023-03-30T18:26:22.523Z,99077.13
2023-03-30T18:28:51.562Z,99074.78
2023-03-30T18:31:19.361Z,99090.84
2023-03-30T18:33:47.051Z,99085.53
2023-03-30T18:36:14.942Z,99084.78
2023-03-30T18:38:43.122Z,99090.09
2023-03-30T18:41:11.722Z,99080.66
2023-03-30T18:43:39.850Z,99068.41
2023-03-30T18:46:10.818Z,99080.63
2023-03-30T18:48:38.485Z,99077.91
2023-03-30T18:51:06.357Z,99084.97
2023-03-30T18:53:34.002Z,99076.09
2023-03-30T18:56:03.183Z,99075.94
2023-03-30T18:58:35.909Z,99039.81
2023-03-30T19:01:03.796Z,99083.69
2023-03-30T19:03:33.107Z,99074.06
2023-03-30T19:06:00.957Z,99067.06
2023-03-30T19:08:28.781Z,99068.03
2023-03-30T19:10:57.259Z,99074.19
2023-03-30T19:13:25.695Z,99077.72
2023-03-30T19:15:53.548Z,99083.16
2023-03-30T19:18:21.206Z,99075.44
2023-03-30T19:20:50.944Z,99073.63
2023-03-30T19:23:18.968Z,99047.88
2023-03-30T19:25:48.729Z,99080.66
2023-03-30T19:28:16.400Z,99081.53
2023-03-30T19:30:44.250Z,99044.59
2023-03-30T19:33:13.116Z,99080.66
2023-03-30T19:35:41.256Z,99085.00
2023-03-30T19:38:10.341Z,99075.53
2023-03-30T19:40:38.050Z,99070.47
2023-03-30T19:43:05.785Z,99067.88
2023-03-30T19:45:33.590Z,99071.44
2023-03-30T19:48:01.535Z,99061.94
2023-03-30T19:50:30.428Z,99061.16
2023-03-30T19:53:01.346Z,99060.41
2023-03-30T19:55:30.597Z,99067.19
2023-03-30T19:57:58.644Z,99048.31
2023-03-30T20:00:26.309Z,99043.06
2023-03-30T20:02:54.819Z,99057.59
2023-03-30T20:05:23.276Z,99030.84
2023-03-30T20:07:51.141Z,99056.69
2023-03-30T20:10:20.259Z,99046.97
2023-03-30T20:12:49.648Z,99055.75
2023-03-30T20:15:17.421Z,99053.16
2023-03-30T20:17:45.171Z,99037.59
2023-03-30T20:20:14.234Z,99032.44
2023-03-30T20:22:42.860Z,99037.53
2023-03-30T20:25:11.674Z,99045.44
2023-03-30T20:27:40.189Z,99028.97
2023-03-30T20:30:11.607Z,99040.47
2023-03-30T20:32:39.414Z,99033.63
2023-03-30T20:35:08.168Z,99034.69
2023-03-30T20:37:35.890Z,99031.38
2023-03-30T20:40:09.719Z,99036.78
2023-03-30T20:42:39.951Z,99033.22
2023-03-30T20:45:10.356Z,99039.47
2023-03-30T20:47:38.041Z,99031.50
2023-03-30T20:50:06.442Z,99037.72
2023-03-30T20:52:34.605Z,99033.66
2023-03-30T20:55:02.361Z,99027.81
2023-03-30T20:57:30.085Z,99038.34
2023-03-30T20:59:57.825Z,99028.78
2023-03-30T21:02:28.136Z,99010.72
2023-03-30T21:04:58.014Z,99018.44
2023-03-30T21:07:27.406Z,99021.09
2023-03-30T21:09:55.052Z,99022.13
2023-03-30T21:12:22.722Z,99022.19
2023-03-30T21:14:50.443Z,99017.94
2023-03-30T21:17:18.120Z,99020.75
2023-03-30T21:19:47.182Z,99025.25
2023-03-30T21:22:14.897Z,99022.63
2023-03-30T21:24:42.524Z,99009.69
2023-03-30T21:27:11.121Z,99012.31
2023-03-30T21:29:38.902Z,99010.63
2023-03-30T21:32:06.803Z,98999.38
2023-03-30T21:34:34.450Z,98999.59
2023-03-30T21:37:03.736Z,98997.94
2023-03-30T21:39:31.442Z,98991.06
2023-03-30T21:41:59.196Z,98985.22
2023-03-30T21:44:26.842Z,98982.41
2023-03-30T21:46:54.618Z,98966.78
2023-03-30T21:49:22.366Z,98972.81
2023-03-30T21:51:50.272Z,98971.09
2023-03-30T21:54:19.525Z,98963.19
2023-03-30T21:56:47.285Z,98958.78
2023-03-30T21:59:14.929Z,98957.06
2023-03-30T22:01:42.626Z,98966.66
2023-03-30T22:04:10.493Z,98945.78
2023-03-30T22:06:38.432Z,98962.44
2023-03-30T22:09:06.086Z,98949.28
2023-03-30T22:11:35.107Z,98948.38
2023-03-30T22:14:02.856Z,98950.06
2023-03-30T22:16:32.134Z,98944.84
2023-03-30T22:18:59.978Z,98953.63
2023-03-30T22:21:29.185Z,98943.94
2023-03-30T22:23:57.309Z,98951.91
2023-03-30T22:26:26.915Z,98945.69
2023-03-30T22:28:56.471Z,98930.75
2023-03-30T22:31:24.189Z,98935.25
2023-03-30T22:33:51.840Z,98936.88
2023-03-30T22:36:20.528Z,98925.59
2023-03-30T22:38:48.260Z,98924.69
2023-03-30T22:41:16.016Z,98921.16
2023-03-30T22:43:43.695Z,98922.88
2023-03-30T22:46:12.745Z,98921.13
2023-03-30T22:48:41.971Z,98912.31
2023-03-30T22:51:09.593Z,98924.56
2023-03-30T22:53:38.533Z,98900.94
2023-03-30T22:58:38.209Z,98906.25
2023-03-30T23:01:10.085Z,98863.88
2023-03-30T23:03:39.604Z,98896.69
2023-03-30T23:06:10.548Z,98895.94
2023-03-30T23:08:39.064Z,98897.66
2023-03-30T23:11:08.360Z,98860.50
2023-03-30T23:13:38.100Z,98883.66
2023-03-30T23:16:07.572Z,98884.75
2023-03-30T23:18:36.125Z,98888.84
2023-03-30T23:21:07.047Z,98881.19
2023-03-30T23:23:34.973Z,98874.88
2023-03-30T23:26:08.349Z,98874.97
2023-03-30T23:28:37.530Z,98847.25
2023-03-30T23:31:08.896Z,98855.06
2023-03-30T23:33:36.648Z,98852.75
2023-03-30T23:36:08.319Z,98864.78
2023-03-30T23:38:37.281Z,98864.00
2023-03-30T23:41:05.966Z,98849.06
2023-03-30T23:43:33.759Z,98819.38
2023-03-30T23:46:01.739Z,98841.66
2023-03-30T23:48:29.571Z,98844.25
2023-03-30T23:50:58.644Z,98825.22
2023-03-30T23:53:27.804Z,98836.47
2023-03-30T23:55:55.856Z,98820.91
2023-03-30T23:58:23.714Z,98831.25
